sensor_id;sensor_type;location;lat;lon;timestamp;pressure;altitude;pressure_sealevel;temperature;humidity
63700;BME280;49845;47.130;142.766;2023-12-29T00:02:11;101107.41;;;-14.34;72.64
63700;BME280;49845;47.130;142.766;2023-12-29T00:04:41;101104.88;;;-14.16;72.59
63700;BME280;49845;47.130;142.766;2023-12-29T00:07:12;101101.56;;;-13.98;72.81
63700;BME280;49845;47.130;142.766;2023-12-29T00:09:46;101110.91;;;-13.97;72.50
63700;BME280;49845;47.130;142.766;2023-12-29T00:12:17;101096.88;;;-13.95;72.50
63700;BME280;49845;47.130;142.766;2023-12-29T00:14:47;101101.34;;;-13.73;73.25
63700;BME280;49845;47.130;142.766;2023-12-29T00:17:18;101090.63;;;-13.53;73.83
63700;BME280;49845;47.130;142.766;2023-12-29T00:19:48;101095.84;;;-13.33;73.53
63700;BME280;49845;47.130;142.766;2023-12-29T00:22:19;101088.75;;;-13.28;72.98
63700;BME280;49845;47.130;142.766;2023-12-29T00:24:51;101091.63;;;-13.15;73.09
63700;BME280;49845;47.130;142.766;2023-12-29T00:27:21;101089.44;;;-13.01;72.81
63700;BME280;49845;47.130;142.766;2023-12-29T00:29:52;101087.84;;;-12.82;72.93
63700;BME280;49845;47.130;142.766;2023-12-29T00:32:22;101092.50;;;-12.68;73.10
63700;BME280;49845;47.130;142.766;2023-12-29T00:34:53;101098.41;;;-12.67;72.64
63700;BME280;49845;47.130;142.766;2023-12-29T00:37:23;101104.56;;;-12.64;72.76
63700;BME280;49845;47.130;142.766;2023-12-29T00:39:55;101103.34;;;-12.58;72.68
63700;BME280;49845;47.130;142.766;2023-12-29T00:42:26;101104.63;;;-12.53;72.57
63700;BME280;49845;47.130;142.766;2023-12-29T00:44:56;101101.94;;;-12.65;72.66
63700;BME280;49845;47.130;142.766;2023-12-29T00:47:27;101104.13;;;-12.60;73.58
63700;BME280;49845;47.130;142.766;2023-12-29T00:49:57;101095.06;;;-12.57;74.12
63700;BME280;49845;47.130;142.766;2023-12-29T00:52:28;101104.91;;;-12.50;74.69
63700;BME280;49845;47.130;142.766;2023-12-29T00:55:00;101108.34;;;-12.50;74.96
63700;BME280;49845;47.130;142.766;2023-12-29T00:57:31;101105.78;;;-12.31;75.71
63700;BME280;49845;47.130;142.766;2023-12-29T01:00:01;101104.38;;;-12.08;75.92
63700;BME280;49845;47.130;142.766;2023-12-29T01:02:32;101099.69;;;-11.85;75.89
63700;BME280;49845;47.130;142.766;2023-12-29T01:05:02;101097.22;;;-11.64;75.95
63700;BME280;49845;47.130;142.766;2023-12-29T01:07:33;101087.69;;;-11.48;75.46
63700;BME280;49845;47.130;142.766;2023-12-29T01:10:06;101090.50;;;-11.24;75.78
63700;BME280;49845;47.130;142.766;2023-12-29T01:12:37;101078.25;;;-11.10;75.13
63700;BME280;49845;47.130;142.766;2023-12-29T01:15:08;101081.03;;;-10.96;74.93
63700;BME280;49845;47.130;142.766;2023-12-29T01:17:38;101069.78;;;-10.79;74.29
63700;BME280;49845;47.130;142.766;2023-12-29T01:20:09;101069.00;;;-10.48;74.22
63700;BME280;49845;47.130;142.766;2023-12-29T01:22:40;101069.56;;;-10.30;73.55
63700;BME280;49845;47.130;142.766;2023-12-29T01:25:12;101060.72;;;-10.03;73.46
63700;BME280;49845;47.130;142.766;2023-12-29T01:27:42;101057.25;;;-9.71;73.57
63700;BME280;49845;47.130;142.766;2023-12-29T01:30:13;101049.16;;;-9.45;72.82
63700;BME280;49845;47.130;142.766;2023-12-29T01:32:43;101057.78;;;-9.31;71.95
63700;BME280;49845;47.130;142.766;2023-12-29T01:35:14;101062.22;;;-9.17;71.49
63700;BME280;49845;47.130;142.766;2023-12-29T01:37:46;101058.09;;;-9.04;71.16
63700;BME280;49845;47.130;142.766;2023-12-29T01:40:18;101038.75;;;-8.92;71.67
63700;BME280;49845;47.130;142.766;2023-12-29T01:42:49;101058.81;;;-8.72;71.01
63700;BME280;49845;47.130;142.766;2023-12-29T01:45:23;101054.19;;;-8.65;70.80
63700;BME280;49845;47.130;142.766;2023-12-29T01:47:54;101050.47;;;-8.47;70.74
63700;BME280;49845;47.130;142.766;2023-12-29T01:50:25;101045.38;;;-8.71;69.30
63700;BME280;49845;47.130;142.766;2023-12-29T01:52:56;101036.88;;;-8.83;69.00
63700;BME280;49845;47.130;142.766;2023-12-29T01:55:28;101038.53;;;-8.72;69.63
63700;BME280;49845;47.130;142.766;2023-12-29T01:57:59;101041.63;;;-8.52;70.57
63700;BME280;49845;47.130;142.766;2023-12-29T02:00:31;101035.88;;;-8.38;70.32
63700;BME280;49845;47.130;142.766;2023-12-29T02:03:02;101030.16;;;-8.23;70.04
63700;BME280;49845;47.130;142.766;2023-12-29T02:05:34;101030.56;;;-8.17;69.60
63700;BME280;49845;47.130;142.766;2023-12-29T02:08:06;101029.69;;;-8.06;69.04
63700;BME280;49845;47.130;142.766;2023-12-29T02:10:39;101027.22;;;-7.93;68.90
63700;BME280;49845;47.130;142.766;2023-12-29T02:13:10;101023.16;;;-7.91;68.26
63700;BME280;49845;47.130;142.766;2023-12-29T02:15:40;100919.59;;;-8.58;67.76
63700;BME280;49845;47.130;142.766;2023-12-29T02:18:14;101013.25;;;-8.11;67.76
63700;BME280;49845;47.130;142.766;2023-12-29T02:20:46;101015.09;;;-7.97;68.13
63700;BME280;49845;47.130;142.766;2023-12-29T02:23:17;101014.59;;;-7.79;68.36
63700;BME280;49845;47.130;142.766;2023-12-29T02:25:49;101015.88;;;-7.61;68.63
63700;BME280;49845;47.130;142.766;2023-12-29T02:28:24;100992.44;;;-7.57;67.93
63700;BME280;49845;47.130;142.766;2023-12-29T02:31:00;101005.63;;;-7.38;68.02
63700;BME280;49845;47.130;142.766;2023-12-29T02:33:33;101003.88;;;-7.39;67.44
63700;BME280;49845;47.130;142.766;2023-12-29T02:36:08;101001.88;;;-7.43;66.74
63700;BME280;49845;47.130;142.766;2023-12-29T02:38:40;100997.50;;;-7.45;66.37
63700;BME280;49845;47.130;142.766;2023-12-29T02:41:13;100995.47;;;-7.38;66.41
63700;BME280;49845;47.130;142.766;2023-12-29T02:43:43;100995.41;;;-7.26;66.46
63700;BME280;49845;47.130;142.766;2023-12-29T02:46:14;100988.97;;;-7.21;65.83
63700;BME280;49845;47.130;142.766;2023-12-29T02:48:45;100985.97;;;-7.02;65.62
63700;BME280;49845;47.130;142.766;2023-12-29T02:51:15;100982.66;;;-6.74;66.82
63700;BME280;49845;47.130;142.766;2023-12-29T02:53:46;100980.34;;;-6.58;65.81
63700;BME280;49845;47.130;142.766;2023-12-29T02:56:18;100979.75;;;-6.54;64.49
63700;BME280;49845;47.130;142.766;2023-12-29T02:58:50;100980.13;;;-6.47;63.36
63700;BME280;49845;47.130;142.766;2023-12-29T03:01:20;100980.53;;;-6.41;63.18
63700;BME280;49845;47.130;142.766;2023-12-29T03:03:51;100981.72;;;-6.36;62.65
63700;BME280;49845;47.130;142.766;2023-12-29T03:06:21;100985.81;;;-6.38;61.00
63700;BME280;49845;47.130;142.766;2023-12-29T03:08:53;100985.19;;;-6.34;60.25
63700;BME280;49845;47.130;142.766;2023-12-29T03:11:25;100974.84;;;-6.37;59.39
63700;BME280;49845;47.130;142.766;2023-12-29T03:13:55;100972.88;;;-6.28;60.07
63700;BME280;49845;47.130;142.766;2023-12-29T03:16:26;100968.22;;;-6.48;57.75
63700;BME280;49845;47.130;142.766;2023-12-29T03:18:56;100964.91;;;-6.61;58.18
63700;BME280;49845;47.130;142.766;2023-12-29T03:21:27;100956.66;;;-6.57;58.89
63700;BME280;49845;47.130;142.766;2023-12-29T03:23:57;100955.28;;;-6.52;58.64
63700;BME280;49845;47.130;142.766;2023-12-29T03:26:29;100949.84;;;-6.58;57.55
63700;BME280;49845;47.130;142.766;2023-12-29T03:29:00;100950.59;;;-6.45;59.32
63700;BME280;49845;47.130;142.766;2023-12-29T03:31:30;100948.22;;;-6.29;58.76
63700;BME280;49845;47.130;142.766;2023-12-29T03:34:01;100948.44;;;-6.26;57.26
63700;BME280;49845;47.130;142.766;2023-12-29T03:36:32;100951.47;;;-6.45;56.04
63700;BME280;49845;47.130;142.766;2023-12-29T03:39:02;100953.94;;;-6.73;55.56
63700;BME280;49845;47.130;142.766;2023-12-29T03:41:37;100940.06;;;-6.78;57.29
63700;BME280;49845;47.130;142.766;2023-12-29T03:44:07;100942.03;;;-6.61;59.48
63700;BME280;49845;47.130;142.766;2023-12-29T03:46:37;100945.72;;;-6.69;57.92
63700;BME280;49845;47.130;142.766;2023-12-29T03:49:08;100856.03;;;-7.21;57.45
63700;BME280;49845;47.130;142.766;2023-12-29T03:51:38;100940.34;;;-6.87;56.13
63700;BME280;49845;47.130;142.766;2023-12-29T03:54:09;100941.91;;;-7.16;56.09
63700;BME280;49845;47.130;142.766;2023-12-29T03:56:41;100937.88;;;-7.12;56.95
63700;BME280;49845;47.130;142.766;2023-12-29T03:59:12;100941.59;;;-7.07;56.67
63700;BME280;49845;47.130;142.766;2023-12-29T04:01:42;100946.69;;;-7.07;56.13
63700;BME280;49845;47.130;142.766;2023-12-29T04:04:13;100934.78;;;-6.95;56.88
63700;BME280;49845;47.130;142.766;2023-12-29T04:06:43;100925.59;;;-6.92;56.24
63700;BME280;49845;47.130;142.766;2023-12-29T04:09:13;100940.06;;;-6.78;56.39
63700;BME280;49845;47.130;142.766;2023-12-29T04:11:46;100931.84;;;-6.74;56.53
63700;BME280;49845;47.130;142.766;2023-12-29T04:14:16;100927.84;;;-6.97;55.16
63700;BME280;49845;47.130;142.766;2023-12-29T04:16:47;100930.56;;;-7.21;54.04
63700;BME280;49845;47.130;142.766;2023-12-29T04:19:17;100914.66;;;-7.56;53.80
63700;BME280;49845;47.130;142.766;2023-12-29T04:21:47;100925.41;;;-7.86;54.00
63700;BME280;49845;47.130;142.766;2023-12-29T04:24:18;100919.13;;;-7.91;54.22
63700;BME280;49845;47.130;142.766;2023-12-29T04:26:50;100913.63;;;-7.97;54.02
63700;BME280;49845;47.130;142.766;2023-12-29T04:29:20;100917.19;;;-8.07;53.40
63700;BME280;49845;47.130;142.766;2023-12-29T04:31:51;100912.13;;;-8.07;53.66
63700;BME280;49845;47.130;142.766;2023-12-29T04:34:21;100907.13;;;-8.18;53.38
63700;BME280;49845;47.130;142.766;2023-12-29T04:36:52;100910.59;;;-8.16;53.77
63700;BME280;49845;47.130;142.766;2023-12-29T04:39:22;100902.66;;;-8.09;54.12
63700;BME280;49845;47.130;142.766;2023-12-29T04:41:54;100900.91;;;-8.10;53.91
63700;BME280;49845;47.130;142.766;2023-12-29T04:44:25;100894.28;;;-8.08;53.94
63700;BME280;49845;47.130;142.766;2023-12-29T04:46:55;100905.72;;;-8.02;53.79
63700;BME280;49845;47.130;142.766;2023-12-29T04:49:26;100902.94;;;-7.93;53.40
63700;BME280;49845;47.130;142.766;2023-12-29T04:51:56;100900.41;;;-7.93;53.55
63700;BME280;49845;47.130;142.766;2023-12-29T04:54:27;100909.41;;;-7.85;54.95
63700;BME280;49845;47.130;142.766;2023-12-29T04:57:02;100905.28;;;-7.96;54.58
63700;BME280;49845;47.130;142.766;2023-12-29T04:59:33;100906.19;;;-8.07;54.80
63700;BME280;49845;47.130;142.766;2023-12-29T05:02:03;100897.19;;;-8.15;54.21
63700;BME280;49845;47.130;142.766;2023-12-29T05:04:34;100903.38;;;-8.23;53.70
63700;BME280;49845;47.130;142.766;2023-12-29T05:07:09;100910.16;;;-8.36;53.54
63700;BME280;49845;47.130;142.766;2023-12-29T05:09:39;100897.09;;;-8.29;54.01
63700;BME280;49845;47.130;142.766;2023-12-29T05:12:12;100898.72;;;-8.17;54.23
63700;BME280;49845;47.130;142.766;2023-12-29T05:14:43;100903.00;;;-8.16;54.31
63700;BME280;49845;47.130;142.766;2023-12-29T05:17:13;100903.38;;;-8.23;54.35
63700;BME280;49845;47.130;142.766;2023-12-29T05:19:44;100877.94;;;-8.37;54.99
63700;BME280;49845;47.130;142.766;2023-12-29T05:22:14;100911.25;;;-8.07;55.91
63700;BME280;49845;47.130;142.766;2023-12-29T05:24:46;100908.16;;;-8.03;57.36
63700;BME280;49845;47.130;142.766;2023-12-29T05:27:20;100902.78;;;-8.08;56.20
63700;BME280;49845;47.130;142.766;2023-12-29T05:29:51;100899.78;;;-8.14;56.24
63700;BME280;49845;47.130;142.766;2023-12-29T05:32:21;100907.53;;;-8.12;56.07
63700;BME280;49845;47.130;142.766;2023-12-29T05:34:52;100915.28;;;-8.22;55.28
63700;BME280;49845;47.130;142.766;2023-12-29T05:37:23;100907.59;;;-8.36;55.12
63700;BME280;49845;47.130;142.766;2023-12-29T05:39:53;100909.16;;;-8.38;55.14
63700;BME280;49845;47.130;142.766;2023-12-29T05:42:25;100905.25;;;-8.46;55.15
63700;BME280;49845;47.130;142.766;2023-12-29T05:44:56;100908.31;;;-8.50;56.07
63700;BME280;49845;47.130;142.766;2023-12-29T05:47:26;100909.00;;;-8.53;55.70
63700;BME280;49845;47.130;142.766;2023-12-29T05:49:57;100905.88;;;-8.49;57.37
63700;BME280;49845;47.130;142.766;2023-12-29T05:52:28;100917.91;;;-8.46;58.36
63700;BME280;49845;47.130;142.766;2023-12-29T05:54:58;100910.06;;;-8.49;59.57
63700;BME280;49845;47.130;142.766;2023-12-29T05:57:31;100918.59;;;-8.60;60.63
63700;BME280;49845;47.130;142.766;2023-12-29T06:00:01;100920.25;;;-8.73;60.72
63700;BME280;49845;47.130;142.766;2023-12-29T06:02:33;100916.53;;;-8.78;61.68
63700;BME280;49845;47.130;142.766;2023-12-29T06:05:04;100907.91;;;-8.92;61.74
63700;BME280;49845;47.130;142.766;2023-12-29T06:07:34;100900.00;;;-9.20;61.76
63700;BME280;49845;47.130;142.766;2023-12-29T06:10:06;100896.22;;;-9.48;62.27
63700;BME280;49845;47.130;142.766;2023-12-29T06:12:38;100903.63;;;-9.73;62.61
63700;BME280;49845;47.130;142.766;2023-12-29T06:15:09;100897.03;;;-9.83;63.80
63700;BME280;49845;47.130;142.766;2023-12-29T06:17:40;100899.38;;;-9.96;63.98
63700;BME280;49845;47.130;142.766;2023-12-29T06:20:12;100894.44;;;-10.29;64.17
63700;BME280;49845;47.130;142.766;2023-12-29T06:22:42;100899.53;;;-10.61;64.37
63700;BME280;49845;47.130;142.766;2023-12-29T06:25:13;100899.91;;;-10.89;64.71
63700;BME280;49845;47.130;142.766;2023-12-29T06:27:45;100895.91;;;-10.97;65.80
63700;BME280;49845;47.130;142.766;2023-12-29T06:30:16;100896.47;;;-11.21;65.78
63700;BME280;49845;47.130;142.766;2023-12-29T06:32:47;100908.13;;;-11.64;66.48
63700;BME280;49845;47.130;142.766;2023-12-29T06:35:17;100895.56;;;-11.95;67.19
63700;BME280;49845;47.130;142.766;2023-12-29T06:37:48;100910.84;;;-12.33;67.52
63700;BME280;49845;47.130;142.766;2023-12-29T06:40:18;100898.38;;;-12.71;68.38
63700;BME280;49845;47.130;142.766;2023-12-29T06:42:51;100890.41;;;-13.15;70.01
63700;BME280;49845;47.130;142.766;2023-12-29T06:45:21;100901.53;;;-13.32;72.37
63700;BME280;49845;47.130;142.766;2023-12-29T06:47:52;100911.09;;;-13.47;73.78
63700;BME280;49845;47.130;142.766;2023-12-29T06:50:22;100915.56;;;-13.53;74.75
63700;BME280;49845;47.130;142.766;2023-12-29T06:52:53;100914.56;;;-13.55;75.20
63700;BME280;49845;47.130;142.766;2023-12-29T06:55:24;100916.69;;;-13.59;75.37
63700;BME280;49845;47.130;142.766;2023-12-29T06:57:57;100919.84;;;-13.71;75.95
63700;BME280;49845;47.130;142.766;2023-12-29T07:00:28;100921.41;;;-13.81;76.48
63700;BME280;49845;47.130;142.766;2023-12-29T07:02:59;100919.06;;;-13.88;77.12
63700;BME280;49845;47.130;142.766;2023-12-29T07:05:30;100935.06;;;-13.97;77.52
63700;BME280;49845;47.130;142.766;2023-12-29T07:08:01;100933.03;;;-14.01;78.77
63700;BME280;49845;47.130;142.766;2023-12-29T07:10:31;100933.94;;;-14.09;79.86
63700;BME280;49845;47.130;142.766;2023-12-29T07:13:04;100929.69;;;-14.10;80.07
63700;BME280;49845;47.130;142.766;2023-12-29T07:15:34;100933.09;;;-14.18;80.30
63700;BME280;49845;47.130;142.766;2023-12-29T07:18:05;100930.75;;;-14.25;80.62
63700;BME280;49845;47.130;142.766;2023-12-29T07:20:36;100925.47;;;-14.28;80.82
63700;BME280;49845;47.130;142.766;2023-12-29T07:23:07;100926.22;;;-14.29;80.78
63700;BME280;49845;47.130;142.766;2023-12-29T07:25:37;100920.44;;;-14.28;81.20
63700;BME280;49845;47.130;142.766;2023-12-29T07:28:10;100924.25;;;-14.23;81.13
63700;BME280;49845;47.130;142.766;2023-12-29T07:30:40;100925.13;;;-14.14;81.44
63700;BME280;49845;47.130;142.766;2023-12-29T07:33:11;100929.47;;;-14.03;81.20
63700;BME280;49845;47.130;142.766;2023-12-29T07:35:42;100931.25;;;-14.02;80.86
63700;BME280;49845;47.130;142.766;2023-12-29T07:38:13;100920.63;;;-14.08;81.05
63700;BME280;49845;47.130;142.766;2023-12-29T07:40:44;100921.47;;;-13.90;81.15
63700;BME280;49845;47.130;142.766;2023-12-29T07:43:17;100921.66;;;-13.78;81.24
63700;BME280;49845;47.130;142.766;2023-12-29T07:45:48;100932.81;;;-13.66;81.07
63700;BME280;49845;47.130;142.766;2023-12-29T07:48:19;100930.81;;;-13.70;80.88
63700;BME280;49845;47.130;142.766;2023-12-29T07:50:49;100924.44;;;-13.75;80.80
63700;BME280;49845;47.130;142.766;2023-12-29T07:53:20;100936.38;;;-13.64;81.12
63700;BME280;49845;47.130;142.766;2023-12-29T07:55:50;100925.63;;;-13.53;81.14
63700;BME280;49845;47.130;142.766;2023-12-29T07:58:23;100930.88;;;-13.41;81.00
63700;BME280;49845;47.130;142.766;2023-12-29T08:00:54;100930.25;;;-13.38;80.77
63700;BME280;49845;47.130;142.766;2023-12-29T08:03:24;100923.41;;;-13.50;79.90
63700;BME280;49845;47.130;142.766;2023-12-29T08:05:55;100930.81;;;-13.51;79.51
63700;BME280;49845;47.130;142.766;2023-12-29T08:08:25;100927.56;;;-13.78;79.13
63700;BME280;49845;47.130;142.766;2023-12-29T08:10:56;100937.41;;;-13.89;79.22
63700;BME280;49845;47.130;142.766;2023-12-29T08:13:28;100936.66;;;-13.88;80.21
63700;BME280;49845;47.130;142.766;2023-12-29T08:15:59;100935.59;;;-13.82;80.49
63700;BME280;49845;47.130;142.766;2023-12-29T08:18:29;100926.69;;;-13.78;80.71
63700;BME280;49845;47.130;142.766;2023-12-29T08:21:00;100925.78;;;-13.70;80.75
63700;BME280;49845;47.130;142.766;2023-12-29T08:23:30;100907.34;;;-13.79;80.38
63700;BME280;49845;47.130;142.766;2023-12-29T08:26:02;100926.47;;;-13.62;80.70
63700;BME280;49845;47.130;142.766;2023-12-29T08:28:35;100926.56;;;-13.61;80.54
63700;BME280;49845;47.130;142.766;2023-12-29T08:31:06;100933.66;;;-13.57;80.20
63700;BME280;49845;47.130;142.766;2023-12-29T08:33:36;100926.56;;;-13.61;79.95
63700;BME280;49845;47.130;142.766;2023-12-29T08:36:07;100935.59;;;-13.63;79.84
63700;BME280;49845;47.130;142.766;2023-12-29T08:38:38;100934.88;;;-13.62;79.68
63700;BME280;49845;47.130;142.766;2023-12-29T08:41:08;100930.38;;;-13.56;80.06
63700;BME280;49845;47.130;142.766;2023-12-29T08:43:40;100905.94;;;-13.67;80.15
63700;BME280;49845;47.130;142.766;2023-12-29T08:46:11;100924.13;;;-13.51;79.77
63700;BME280;49845;47.130;142.766;2023-12-29T08:48:41;100929.78;;;-13.53;79.23
63700;BME280;49845;47.130;142.766;2023-12-29T08:51:12;100930.38;;;-13.56;79.17
63700;BME280;49845;47.130;142.766;2023-12-29T08:53:43;100927.16;;;-13.55;79.26
63700;BME280;49845;47.130;142.766;2023-12-29T08:56:13;100925.09;;;-13.59;79.35
63700;BME280;49845;47.130;142.766;2023-12-29T08:58:45;100926.78;;;-13.68;79.17
63700;BME280;49845;47.130;142.766;2023-12-29T09:01:16;100933.50;;;-13.77;79.10
63700;BME280;49845;47.130;142.766;2023-12-29T09:03:47;100924.84;;;-13.89;79.05
63700;BME280;49845;47.130;142.766;2023-12-29T09:06:18;100936.47;;;-13.81;79.36
63700;BME280;49845;47.130;142.766;2023-12-29T09:08:48;100932.47;;;-13.79;79.62
63700;BME280;49845;47.130;142.766;2023-12-29T09:11:19;100933.44;;;-13.69;79.93
63700;BME280;49845;47.130;142.766;2023-12-29T09:13:51;100948.75;;;-13.57;80.28
63700;BME280;49845;47.130;142.766;2023-12-29T09:16:22;100941.00;;;-13.50;80.30
63700;BME280;49845;47.130;142.766;2023-12-29T09:18:52;100950.19;;;-13.50;79.84
63700;BME280;49845;47.130;142.766;2023-12-29T09:21:23;100952.19;;;-13.46;79.95
63700;BME280;49845;47.130;142.766;2023-12-29T09:23:53;100939.22;;;-13.51;79.51
63700;BME280;49845;47.130;142.766;2023-12-29T09:26:24;100953.19;;;-13.63;79.36
63700;BME280;49845;47.130;142.766;2023-12-29T09:28:56;100945.88;;;-13.70;79.70
63700;BME280;49845;47.130;142.766;2023-12-29T09:31:26;100952.66;;;-13.69;80.16
63700;BME280;49845;47.130;142.766;2023-12-29T09:33:57;100943.22;;;-13.72;80.40
63700;BME280;49845;47.130;142.766;2023-12-29T09:36:28;100936.47;;;-13.81;80.21
63700;BME280;49845;47.130;142.766;2023-12-29T09:38:59;100930.06;;;-13.97;79.96
63700;BME280;49845;47.130;142.766;2023-12-29T09:41:31;100911.88;;;-14.30;80.25
63700;BME280;49845;47.130;142.766;2023-12-29T09:44:08;100925.19;;;-14.31;80.62
63700;BME280;49845;47.130;142.766;2023-12-29T09:46:43;100929.34;;;-14.32;80.90
63700;BME280;49845;47.130;142.766;2023-12-29T09:49:16;100922.69;;;-14.31;81.07
63700;BME280;49845;47.130;142.766;2023-12-29T09:51:49;100924.00;;;-14.26;81.58
63700;BME280;49845;47.130;142.766;2023-12-29T09:54:20;100918.50;;;-14.22;82.01
63700;BME280;49845;47.130;142.766;2023-12-29T09:56:51;100919.81;;;-14.17;82.39
63700;BME280;49845;47.130;142.766;2023-12-29T09:59:24;100918.63;;;-14.12;82.62
63700;BME280;49845;47.130;142.766;2023-12-29T10:01:56;100853.22;;;-14.50;82.69
63700;BME280;49845;47.130;142.766;2023-12-29T10:04:27;100920.94;;;-14.05;82.73
63700;BME280;49845;47.130;142.766;2023-12-29T10:07:02;100920.19;;;-14.04;82.82
63700;BME280;49845;47.130;142.766;2023-12-29T10:09:37;100910.00;;;-14.05;82.78
63700;BME280;49845;47.130;142.766;2023-12-29T10:12:09;100893.31;;;-14.05;83.16
63700;BME280;49845;47.130;142.766;2023-12-29T10:14:48;100914.31;;;-13.85;83.06
63700;BME280;49845;47.130;142.766;2023-12-29T10:17:30;100899.72;;;-13.89;83.18
63700;BME280;49845;47.130;142.766;2023-12-29T10:20:15;100912.31;;;-13.71;82.81
63700;BME280;49845;47.130;142.766;2023-12-29T10:22:51;100921.22;;;-13.74;82.49
63700;BME280;49845;47.130;142.766;2023-12-29T10:25:25;100899.81;;;-13.79;82.37
63700;BME280;49845;47.130;142.766;2023-12-29T10:27:56;100913.41;;;-13.77;82.32
63700;BME280;49845;47.130;142.766;2023-12-29T10:30:29;100906.59;;;-13.78;82.00
63700;BME280;49845;47.130;142.766;2023-12-29T10:33:03;100909.38;;;-13.75;81.83
63700;BME280;49845;47.130;142.766;2023-12-29T10:35:35;100900.06;;;-13.76;81.71
63700;BME280;49845;47.130;142.766;2023-12-29T10:38:11;100903.63;;;-13.74;81.75
63700;BME280;49845;47.130;142.766;2023-12-29T10:40:41;100900.03;;;-13.67;81.55
63700;BME280;49845;47.130;142.766;2023-12-29T10:43:12;100901.44;;;-13.61;81.58
63700;BME280;49845;47.130;142.766;2023-12-29T10:45:44;100902.47;;;-13.59;81.38
63700;BME280;49845;47.130;142.766;2023-12-29T10:48:21;100897.91;;;-13.63;81.14
63700;BME280;49845;47.130;142.766;2023-12-29T10:50:52;100900.91;;;-13.67;81.19
63700;BME280;49845;47.130;142.766;2023-12-29T10:53:23;100902.00;;;-13.55;81.59
63700;BME280;49845;47.130;142.766;2023-12-29T10:55:53;100841.63;;;-13.84;81.62
63700;BME280;49845;47.130;142.766;2023-12-29T10:58:26;100893.50;;;-13.65;81.11
63700;BME280;49845;47.130;142.766;2023-12-29T11:00:59;100884.06;;;-13.68;81.30
63700;BME280;49845;47.130;142.766;2023-12-29T11:03:30;100893.97;;;-13.51;81.49
63700;BME280;49845;47.130;142.766;2023-12-29T11:06:01;100875.34;;;-13.53;81.95
63700;BME280;49845;47.130;142.766;2023-12-29T11:08:35;100890.31;;;-13.35;81.92
63700;BME280;49845;47.130;142.766;2023-12-29T11:11:07;100884.75;;;-13.41;81.55
63700;BME280;49845;47.130;142.766;2023-12-29T11:13:38;100874.88;;;-13.49;81.60
63700;BME280;49845;47.130;142.766;2023-12-29T11:16:11;100875.66;;;-13.50;81.51
63700;BME280;49845;47.130;142.766;2023-12-29T11:18:41;100869.41;;;-13.44;81.84
63700;BME280;49845;47.130;142.766;2023-12-29T11:21:14;100872.94;;;-13.42;81.73
63700;BME280;49845;47.130;142.766;2023-12-29T11:23:46;100871.09;;;-13.54;81.11
63700;BME280;49845;47.130;142.766;2023-12-29T11:26:17;100870.19;;;-13.73;80.62
63700;BME280;49845;47.130;142.766;2023-12-29T11:28:48;100874.13;;;-13.85;80.50
63700;BME280;49845;47.130;142.766;2023-12-29T11:31:21;100870.31;;;-13.91;80.52
63700;BME280;49845;47.130;142.766;2023-12-29T11:33:55;100871.25;;;-13.99;80.73
63700;BME280;49845;47.130;142.766;2023-12-29T11:36:31;100859.72;;;-13.97;80.71
63700;BME280;49845;47.130;142.766;2023-12-29T11:39:12;100859.84;;;-13.95;81.23
63700;BME280;49845;47.130;142.766;2023-12-29T11:41:52;100750.31;;;-14.69;81.30
63700;BME280;49845;47.130;142.766;2023-12-29T11:44:27;100821.22;;;-14.25;81.38
63700;BME280;49845;47.130;142.766;2023-12-29T11:46:59;100869.69;;;-13.88;81.74
63700;BME280;49845;47.130;142.766;2023-12-29T11:49:58;100870.81;;;-13.95;81.30
63700;BME280;49845;47.130;142.766;2023-12-29T11:52:33;100861.22;;;-13.99;81.16
63700;BME280;49845;47.130;142.766;2023-12-29T11:55:11;100865.84;;;-13.84;81.45
63700;BME280;49845;47.130;142.766;2023-12-29T11:57:42;100870.19;;;-13.73;81.86
63700;BME280;49845;47.130;142.766;2023-12-29T12:00:13;100873.34;;;-13.57;82.16
63700;BME280;49845;47.130;142.766;2023-12-29T12:02:46;100866.38;;;-13.40;82.83
63700;BME280;49845;47.130;142.766;2023-12-29T12:05:46;100861.16;;;-13.33;82.73
63700;BME280;49845;47.130;142.766;2023-12-29T12:08:33;100858.44;;;-13.16;83.20
63700;BME280;49845;47.130;142.766;2023-12-29T12:14:10;100843.00;;;-12.81;83.44
63700;BME280;49845;47.130;142.766;2023-12-29T12:16:48;100850.56;;;-12.71;83.25
63700;BME280;49845;47.130;142.766;2023-12-29T12:19:21;100844.66;;;-12.71;82.81
63700;BME280;49845;47.130;142.766;2023-12-29T12:21:55;100845.53;;;-12.71;82.57
63700;BME280;49845;47.130;142.766;2023-12-29T12:24:27;100842.00;;;-12.73;82.22
63700;BME280;49845;47.130;142.766;2023-12-29T12:26:58;100834.22;;;-12.66;82.53
63700;BME280;49845;47.130;142.766;2023-12-29T12:29:30;100825.41;;;-12.61;82.56
63700;BME280;49845;47.130;142.766;2023-12-29T12:32:01;100819.66;;;-12.60;82.46
63700;BME280;49845;47.130;142.766;2023-12-29T12:34:39;100827.69;;;-12.64;82.42
63700;BME280;49845;47.130;142.766;2023-12-29T12:37:09;100819.66;;;-12.60;82.19
63700;BME280;49845;47.130;142.766;2023-12-29T12:39:40;100814.38;;;-12.63;82.20
63700;BME280;49845;47.130;142.766;2023-12-29T12:42:11;100805.56;;;-12.68;81.83
63700;BME280;49845;47.130;142.766;2023-12-29T12:44:46;100802.03;;;-12.70;81.76
63700;BME280;49845;47.130;142.766;2023-12-29T12:47:25;100797.59;;;-12.72;81.97
63700;BME280;49845;47.130;142.766;2023-12-29T12:49:59;100774.31;;;-12.80;82.45